createdAt,value
2022-07-29T00:00:11.775Z,2.07
2022-07-29T00:00:58.618Z,2.17
2022-07-29T00:01:45.126Z,2.24
2022-07-29T00:02:33.080Z,2.49
2022-07-29T00:03:19.713Z,2.38
2022-07-29T00:04:06.304Z,2.32
2022-07-29T00:04:55.322Z,2.39
2022-07-29T00:05:42.997Z,2.29
2022-07-29T00:06:29.562Z,2.47
2022-07-29T00:07:16.171Z,2.56
2022-07-29T00:08:02.896Z,2.44
2022-07-29T00:08:49.476Z,2.15
2022-07-29T00:09:50.407Z,2.23
2022-07-29T00:10:38.443Z,2.53
2022-07-29T00:11:25.015Z,2.66
2022-07-29T00:12:11.455Z,2.30
2022-07-29T00:12:58.272Z,2.23
2022-07-29T00:13:49.098Z,2.23
2022-07-29T00:14:37.770Z,2.07
2022-07-29T00:15:24.346Z,2.32
2022-07-29T00:16:10.909Z,2.28
2022-07-29T00:16:57.546Z,2.17
2022-07-29T00:17:44.536Z,2.57
2022-07-29T00:18:31.280Z,2.39
2022-07-29T00:19:17.778Z,2.46
2022-07-29T00:20:05.405Z,2.50
2022-07-29T00:20:51.877Z,2.58
2022-07-29T00:21:38.606Z,2.39
2022-07-29T00:22:25.103Z,2.46
2022-07-29T00:23:13.569Z,2.55
2022-07-29T00:24:00.224Z,2.12
2022-07-29T00:24:49.600Z,2.41
2022-07-29T00:25:36.485Z,2.43
2022-07-29T00:26:24.069Z,2.50
2022-07-29T00:27:10.709Z,2.72
2022-07-29T00:27:57.461Z,2.58
2022-07-29T00:28:43.958Z,2.32
2022-07-29T00:29:34.143Z,2.57
2022-07-29T00:30:21.230Z,2.57
2022-07-29T00:31:08.939Z,2.63
2022-07-29T00:31:55.771Z,2.47
2022-07-29T00:32:42.511Z,2.31
2022-07-29T00:33:29.960Z,2.27
2022-07-29T00:34:35.400Z,2.32
2022-07-29T00:35:40.516Z,2.16
2022-07-29T00:36:27.217Z,2.62
2022-07-29T00:37:13.777Z,2.66
2022-07-29T00:38:00.371Z,2.81
2022-07-29T00:38:50.468Z,2.73
2022-07-29T00:39:36.952Z,2.52
2022-07-29T00:40:23.860Z,2.41
2022-07-29T00:41:10.569Z,2.61
2022-07-29T00:41:57.047Z,2.51
2022-07-29T00:42:48.235Z,2.44
2022-07-29T00:43:34.970Z,2.38
2022-07-29T00:44:21.433Z,2.41
2022-07-29T00:45:08.135Z,2.28
2022-07-29T00:45:54.576Z,2.43
2022-07-29T00:46:41.254Z,2.55
2022-07-29T00:47:27.900Z,2.80
2022-07-29T00:48:15.308Z,2.56
2022-07-29T00:49:02.019Z,2.37
2022-07-29T00:49:48.807Z,2.39
2022-07-29T00:50:37.194Z,2.56
2022-07-29T00:51:23.841Z,2.46
2022-07-29T00:52:12.258Z,2.60
2022-07-29T00:52:59.647Z,2.81
2022-07-29T00:53:47.874Z,2.54
2022-07-29T00:54:39.134Z,2.90
2022-07-29T00:55:32.077Z,2.12
2022-07-29T00:56:18.597Z,2.51
2022-07-29T00:57:08.281Z,2.57
2022-07-29T00:57:55.940Z,2.55
2022-07-29T00:58:44.767Z,2.34
2022-07-29T00:59:35.103Z,2.46
2022-07-29T01:00:25.579Z,2.47
2022-07-29T01:01:12.258Z,2.71
2022-07-29T01:01:59.022Z,2.75
2022-07-29T01:02:49.115Z,2.61
2022-07-29T01:03:35.611Z,2.91
2022-07-29T01:04:23.035Z,2.77
2022-07-29T01:05:09.887Z,2.94
2022-07-29T01:05:56.999Z,2.59
2022-07-29T01:06:43.934Z,2.39
2022-07-29T01:07:34.970Z,2.62
2022-07-29T01:08:23.860Z,2.78
2022-07-29T01:09:13.907Z,2.73
2022-07-29T01:10:02.938Z,2.59
2022-07-29T01:11:08.246Z,2.80
2022-07-29T01:11:55.302Z,2.94
2022-07-29T01:12:45.650Z,2.75
2022-07-29T01:13:34.267Z,2.59
2022-07-29T01:14:22.657Z,2.46
2022-07-29T01:15:09.547Z,2.47
2022-07-29T01:16:04.758Z,2.73
2022-07-29T01:17:02.492Z,2.89
2022-07-29T01:18:02.536Z,2.75
2022-07-29T01:18:59.372Z,2.65
2022-07-29T01:20:02.655Z,2.59
2022-07-29T01:21:07.126Z,2.64
2022-07-29T01:22:07.396Z,2.73
2022-07-29T01:23:31.389Z,2.71
2022-07-29T01:24:59.106Z,2.60
2022-07-29T01:26:22.550Z,2.81
2022-07-29T01:27:33.609Z,2.90
2022-07-29T01:28:44.792Z,2.78
2022-07-29T01:29:42.271Z,2.80
2022-07-29T01:30:33.326Z,2.57
2022-07-29T01:31:29.092Z,2.72
2022-07-29T01:32:28.670Z,2.81
2022-07-29T01:33:40.589Z,2.71
2022-07-29T01:34:39.706Z,2.88
2022-07-29T01:35:37.153Z,2.78
2022-07-29T01:36:40.244Z,2.65
2022-07-29T01:37:35.405Z,2.46
2022-07-29T01:38:28.369Z,2.96
2022-07-29T01:39:31.035Z,2.64
2022-07-29T01:40:24.870Z,2.64
2022-07-29T01:41:17.547Z,2.74
2022-07-29T01:42:27.950Z,2.51
2022-07-29T01:43:20.009Z,3.13
2022-07-29T01:44:18.970Z,2.83
2022-07-29T01:45:34.493Z,2.48
2022-07-29T01:46:29.867Z,2.28
2022-07-29T01:47:21.615Z,2.52
2022-07-29T01:48:14.517Z,2.88
2022-07-29T01:49:21.086Z,2.80
2022-07-29T01:50:13.370Z,2.55
2022-07-29T01:51:08.477Z,2.35
2022-07-29T01:52:12.091Z,2.79
2022-07-29T01:53:03.041Z,2.65
2022-07-29T01:54:16.316Z,2.76
2022-07-29T01:55:12.746Z,3.05
2022-07-29T01:56:02.661Z,3.01
2022-07-29T01:56:54.489Z,2.79
2022-07-29T01:57:45.633Z,2.44
2022-07-29T01:58:36.611Z,2.92
2022-07-29T01:59:26.370Z,2.47
2022-07-29T02:00:15.552Z,2.67
2022-07-29T02:01:04.640Z,2.53
2022-07-29T02:01:54.677Z,2.37
2022-07-29T02:02:45.097Z,2.55
2022-07-29T02:03:35.679Z,2.58
2022-07-29T02:04:29.875Z,2.30
2022-07-29T02:05:21.518Z,2.55
2022-07-29T02:06:12.148Z,2.56
2022-07-29T02:07:03.708Z,2.40
2022-07-29T02:07:53.966Z,2.62
2022-07-29T02:08:42.230Z,2.92
2022-07-29T02:09:32.409Z,2.97
2022-07-29T02:10:26.301Z,2.83
2022-07-29T02:11:12.921Z,2.69
2022-07-29T02:12:02.490Z,2.51
2022-07-29T02:12:51.206Z,2.66
2022-07-29T02:13:39.280Z,2.66
2022-07-29T02:14:29.530Z,2.63
2022-07-29T02:15:19.018Z,3.06
2022-07-29T02:16:09.348Z,2.76
2022-07-29T02:16:59.381Z,3.08
2022-07-29T02:17:57.645Z,3.08
2022-07-29T02:18:48.406Z,3.16
2022-07-29T02:19:39.383Z,3.45
2022-07-29T02:20:27.254Z,3.60
2022-07-29T02:21:20.473Z,3.12
2022-07-29T02:22:09.800Z,3.60
2022-07-29T02:22:59.569Z,3.66
2022-07-29T02:23:51.151Z,3.69
2022-07-29T02:24:41.428Z,3.44
2022-07-29T02:25:37.208Z,3.44
2022-07-29T02:26:27.991Z,3.40
2022-07-29T02:27:16.895Z,3.34
2022-07-29T02:28:05.759Z,3.31
2022-07-29T02:28:57.211Z,3.09
2022-07-29T02:29:47.744Z,3.04
2022-07-29T02:30:39.892Z,2.99
2022-07-29T02:31:33.388Z,3.19
2022-07-29T02:32:23.453Z,3.00
2022-07-29T02:33:15.214Z,3.19
2022-07-29T02:34:05.994Z,3.12
2022-07-29T02:34:54.692Z,3.19
2022-07-29T02:35:44.121Z,3.36
2022-07-29T02:36:33.656Z,3.29
2022-07-29T02:37:22.453Z,3.36
2022-07-29T02:38:31.929Z,2.91
2022-07-29T02:39:20.529Z,3.09
2022-07-29T02:40:12.209Z,3.22
2022-07-29T02:41:01.126Z,3.10
2022-07-29T02:42:04.634Z,2.82
2022-07-29T02:42:51.313Z,3.37
2022-07-29T02:43:40.258Z,3.34
2022-07-29T02:44:32.651Z,3.31
2022-07-29T02:45:20.992Z,3.26
2022-07-29T02:46:29.245Z,3.30
2022-07-29T02:47:42.194Z,2.93
2022-07-29T02:48:37.855Z,3.37
2022-07-29T02:49:47.736Z,3.04
2022-07-29T02:50:40.308Z,3.16
2022-07-29T02:51:41.478Z,3.45
2022-07-29T02:52:56.654Z,2.92
2022-07-29T02:53:52.413Z,3.06
2022-07-29T02:54:41.149Z,3.25
2022-07-29T02:55:37.874Z,2.77
2022-07-29T02:56:35.896Z,3.36
2022-07-29T02:57:55.012Z,3.00
2022-07-29T02:58:47.840Z,3.23
2022-07-29T02:59:38.437Z,3.27
2022-07-29T03:00:29.948Z,3.11
2022-07-29T03:01:26.591Z,3.04
2022-07-29T03:02:16.167Z,3.13
2022-07-29T03:03:08.342Z,3.20
2022-07-29T03:03:56.436Z,3.02
2022-07-29T03:04:45.467Z,3.12
2022-07-29T03:05:32.373Z,3.18
2022-07-29T03:06:28.100Z,2.89
2022-07-29T03:07:21.472Z,2.89
2022-07-29T03:08:11.447Z,2.95
2022-07-29T03:09:00.971Z,2.94
2022-07-29T03:09:51.763Z,3.40
2022-07-29T03:10:41.263Z,3.27
2022-07-29T03:11:46.183Z,3.53
2022-07-29T03:12:36.487Z,3.49
2022-07-29T03:13:25.504Z,3.19
2022-07-29T03:14:13.859Z,2.98
2022-07-29T03:15:02.821Z,3.10
2022-07-29T03:15:51.060Z,3.30
2022-07-29T03:16:41.246Z,3.80
2022-07-29T03:17:28.735Z,3.66
2022-07-29T03:18:16.242Z,3.54
2022-07-29T03:19:04.728Z,3.32
2022-07-29T03:19:51.667Z,3.56
2022-07-29T03:20:39.701Z,3.34
2022-07-29T03:21:26.275Z,3.12
2022-07-29T03:22:13.131Z,3.55
2022-07-29T03:22:59.773Z,3.21
2022-07-29T03:23:46.365Z,3.46
2022-07-29T03:24:35.611Z,3.18
2022-07-29T03:25:22.276Z,3.09
2022-07-29T03:26:08.909Z,3.12
2022-07-29T03:26:57.372Z,3.09
2022-07-29T03:27:45.261Z,2.91
2022-07-29T03:28:31.978Z,3.20
2022-07-29T03:29:20.483Z,3.17
2022-07-29T03:30:08.965Z,2.83
2022-07-29T03:30:55.573Z,2.73
2022-07-29T03:31:43.756Z,3.10
2022-07-29T03:32:30.341Z,3.31
2022-07-29T03:33:17.462Z,3.32
2022-07-29T03:34:04.011Z,3.18
2022-07-29T03:34:50.567Z,2.97
2022-07-29T03:35:37.093Z,3.19
2022-07-29T03:36:23.815Z,3.07
2022-07-29T03:37:10.321Z,3.03
2022-07-29T03:37:56.820Z,3.33
2022-07-29T03:38:46.634Z,3.01
2022-07-29T03:39:40.960Z,2.85
2022-07-29T03:40:35.180Z,2.79
2022-07-29T03:41:25.150Z,3.20
2022-07-29T03:42:16.708Z,3.08
2022-07-29T03:43:06.719Z,3.17
2022-07-29T03:43:55.869Z,2.85
2022-07-29T03:44:46.529Z,2.86
2022-07-29T03:45:36.059Z,3.14
2022-07-29T03:46:27.329Z,3.09
2022-07-29T03:47:18.461Z,3.17
2022-07-29T03:48:11.402Z,3.13
2022-07-29T03:49:03.977Z,2.91
2022-07-29T03:49:55.061Z,3.43
2022-07-29T03:50:42.372Z,3.46
2022-07-29T03:51:33.150Z,3.10
2022-07-29T03:52:22.296Z,3.10
2022-07-29T03:53:08.808Z,3.12
2022-07-29T03:53:55.790Z,3.03
2022-07-29T03:54:43.044Z,2.72
2022-07-29T03:55:36.695Z,3.06
2022-07-29T03:56:24.900Z,3.21
2022-07-29T03:57:13.134Z,3.02
2022-07-29T03:58:03.224Z,3.18
2022-07-29T03:58:52.499Z,2.93
2022-07-29T03:59:40.934Z,2.67
2022-07-29T04:00:29.434Z,3.24
2022-07-29T04:01:18.738Z,3.04
2022-07-29T04:02:09.176Z,2.97
2022-07-29T04:02:55.752Z,2.87
2022-07-29T04:03:42.496Z,2.93
2022-07-29T04:04:29.533Z,3.06
2022-07-29T04:05:17.418Z,3.19
2022-07-29T04:06:07.139Z,3.29
2022-07-29T04:06:53.612Z,2.97
2022-07-29T04:07:41.336Z,3.01
2022-07-29T04:08:27.930Z,3.02
2022-07-29T04:09:14.839Z,2.87
2022-07-29T04:10:01.677Z,2.68
2022-07-29T04:10:48.615Z,3.17
2022-07-29T04:11:59.813Z,3.06
2022-07-29T04:12:43.175Z,3.20
2022-07-29T04:13:29.710Z,3.06
2022-07-29T04:14:16.504Z,3.11
2022-07-29T04:15:06.567Z,3.50
2022-07-29T04:15:53.101Z,3.24
2022-07-29T04:16:39.650Z,3.17
2022-07-29T04:17:26.248Z,3.14
2022-07-29T04:18:12.940Z,3.41
2022-07-29T04:19:00.220Z,3.01
2022-07-29T04:19:46.727Z,3.13
2022-07-29T04:20:33.223Z,3.17
2022-07-29T04:21:19.724Z,3.21
2022-07-29T04:22:06.272Z,3.24
2022-07-29T04:22:52.700Z,3.35
2022-07-29T04:23:47.541Z,3.43
2022-07-29T04:24:42.846Z,3.15
2022-07-29T04:25:30.793Z,3.43
2022-07-29T04:26:18.517Z,3.09
2022-07-29T04:27:05.116Z,2.96
2022-07-29T04:28:03.903Z,3.18
2022-07-29T04:28:50.397Z,3.40
2022-07-29T04:29:36.862Z,3.30
2022-07-29T04:30:43.323Z,3.40
2022-07-29T04:31:29.982Z,3.15
2022-07-29T04:32:16.562Z,3.28
2022-07-29T04:33:05.914Z,3.23
2022-07-29T04:33:52.461Z,3.21
2022-07-29T04:34:39.126Z,2.97
2022-07-29T04:35:25.716Z,3.59
2022-07-29T04:36:29.277Z,3.07
2022-07-29T04:37:16.553Z,3.20
2022-07-29T04:38:04.092Z,2.87
2022-07-29T04:38:50.961Z,3.01
2022-07-29T04:39:37.441Z,3.02
2022-07-29T04:40:24.109Z,2.92
2022-07-29T04:41:10.757Z,2.64
2022-07-29T04:41:57.731Z,2.98
2022-07-29T04:42:46.754Z,3.14
2022-07-29T04:43:36.743Z,3.12
2022-07-29T04:44:28.555Z,2.71
2022-07-29T04:45:16.147Z,2.79
2022-07-29T04:46:07.101Z,2.80
2022-07-29T04:46:53.629Z,2.80
2022-07-29T04:47:40.272Z,2.64
2022-07-29T04:48:28.855Z,2.63
2022-07-29T04:49:15.595Z,2.75
2022-07-29T04:50:02.366Z,2.82
2022-07-29T04:50:48.830Z,3.09
2022-07-29T04:51:35.957Z,2.94
2022-07-29T04:52:24.323Z,2.98
2022-07-29T04:53:10.924Z,3.01
2022-07-29T04:53:57.504Z,3.20
2022-07-29T04:54:43.958Z,2.73
2022-07-29T04:55:30.704Z,2.71
2022-07-29T04:56:17.201Z,2.67
2022-07-29T04:57:03.772Z,2.67
2022-07-29T04:57:50.278Z,3.08
2022-07-29T04:58:38.266Z,3.02
2022-07-29T04:59:25.813Z,3.06
2022-07-29T05:00:12.708Z,2.89
2022-07-29T05:01:09.388Z,2.68
2022-07-29T05:01:56.061Z,2.50
2022-07-29T05:02:43.028Z,2.67
2022-07-29T05:03:29.541Z,2.62
2022-07-29T05:04:16.321Z,2.61
2022-07-29T05:05:03.418Z,2.76
2022-07-29T05:05:49.959Z,2.85
2022-07-29T05:06:36.489Z,2.75
2022-07-29T05:07:23.229Z,2.71
2022-07-29T05:08:09.750Z,2.80
2022-07-29T05:08:56.432Z,2.61
2022-07-29T05:09:42.913Z,2.72
2022-07-29T05:10:29.743Z,2.75
2022-07-29T05:11:21.330Z,2.65
2022-07-29T05:12:09.475Z,2.72
2022-07-29T05:12:56.333Z,2.73
2022-07-29T05:13:45.332Z,2.56
2022-07-29T05:14:33.690Z,2.56
2022-07-29T05:15:20.835Z,2.73
2022-07-29T05:16:09.363Z,2.83
2022-07-29T05:16:57.626Z,2.68
2022-07-29T05:17:45.062Z,2.70
2022-07-29T05:18:31.748Z,2.22
2022-07-29T05:19:18.721Z,2.50
2022-07-29T05:20:06.944Z,2.48
2022-07-29T05:20:53.460Z,2.60
2022-07-29T05:21:40.157Z,2.85
2022-07-29T05:22:26.665Z,2.33
2022-07-29T05:23:16.538Z,2.44
2022-07-29T05:24:03.269Z,2.58
2022-07-29T05:24:49.760Z,2.71
2022-07-29T05:25:43.348Z,2.45
2022-07-29T05:26:30.919Z,2.76
2022-07-29T05:27:17.393Z,2.70
2022-07-29T05:28:04.030Z,2.57
2022-07-29T05:28:50.533Z,2.62
2022-07-29T05:29:43.753Z,2.66
2022-07-29T05:30:32.408Z,2.90
2022-07-29T05:31:19.545Z,2.83
2022-07-29T05:32:06.388Z,2.70
2022-07-29T05:32:52.908Z,2.47
2022-07-29T05:33:39.406Z,2.67
2022-07-29T05:34:25.980Z,2.80
2022-07-29T05:35:14.100Z,2.77
2022-07-29T05:36:01.227Z,2.86
2022-07-29T05:36:48.002Z,2.69
2022-07-29T05:37:34.717Z,2.36
2022-07-29T05:38:21.256Z,2.72
2022-07-29T05:39:07.784Z,2.54
2022-07-29T05:39:56.731Z,2.49
2022-07-29T05:40:43.918Z,2.64
2022-07-29T05:41:33.391Z,2.77
2022-07-29T05:42:19.999Z,2.55
2022-07-29T05:43:08.051Z,2.55
2022-07-29T05:43:54.488Z,2.73
2022-07-29T05:44:41.122Z,2.67
2022-07-29T05:45:28.371Z,2.62
2022-07-29T05:46:15.104Z,2.81
2022-07-29T05:47:01.664Z,2.42
2022-07-29T05:47:48.223Z,2.64
2022-07-29T05:48:34.733Z,2.77
2022-07-29T05:49:23.161Z,2.78
2022-07-29T05:50:14.157Z,2.57
2022-07-29T05:51:01.127Z,2.92
2022-07-29T05:51:49.726Z,2.99
2022-07-29T05:52:36.266Z,2.90
2022-07-29T05:53:23.237Z,2.71
2022-07-29T05:54:09.788Z,2.61
2022-07-29T05:54:57.206Z,3.01
2022-07-29T05:55:43.691Z,2.80
2022-07-29T05:56:30.606Z,2.65
2022-07-29T05:57:18.922Z,2.59
2022-07-29T05:58:05.365Z,2.45
2022-07-29T05:58:52.542Z,2.19
2022-07-29T05:59:39.474Z,2.67
2022-07-29T06:00:26.235Z,2.39
2022-07-29T06:01:12.940Z,2.41
2022-07-29T06:02:00.119Z,2.54
2022-07-29T06:02:47.505Z,2.58
2022-07-29T06:03:35.576Z,2.50
2022-07-29T06:04:22.315Z,2.58
2022-07-29T06:05:17.281Z,2.73
2022-07-29T06:06:04.284Z,2.80
2022-07-29T06:06:50.810Z,2.59
2022-07-29T06:07:37.342Z,2.56
2022-07-29T06:08:25.309Z,2.85
2022-07-29T06:09:12.801Z,2.62
2022-07-29T06:10:00.381Z,2.70
2022-07-29T06:10:47.273Z,2.68
2022-07-29T06:11:33.934Z,2.62
2022-07-29T06:12:21.487Z,2.45
2022-07-29T06:13:08.019Z,2.46
2022-07-29T06:13:54.569Z,2.79
2022-07-29T06:14:41.159Z,2.49
2022-07-29T06:15:30.101Z,2.56
2022-07-29T06:16:16.765Z,2.68
2022-07-29T06:17:17.540Z,2.73
2022-07-29T06:18:04.623Z,2.65
2022-07-29T06:18:51.136Z,2.96
2022-07-29T06:19:37.727Z,2.72
2022-07-29T06:20:27.080Z,2.49
2022-07-29T06:21:13.850Z,2.64
2022-07-29T06:22:00.339Z,3.05
2022-07-29T06:22:46.898Z,3.08
2022-07-29T06:23:33.472Z,2.87
2022-07-29T06:24:20.384Z,2.59
2022-07-29T06:25:07.641Z,2.82
2022-07-29T06:25:54.363Z,3.05
2022-07-29T06:26:41.608Z,3.04
2022-07-29T06:27:28.067Z,2.59
2022-07-29T06:28:14.569Z,2.68
2022-07-29T06:29:01.058Z,2.77
2022-07-29T06:29:47.559Z,2.50
2022-07-29T06:30:34.292Z,2.74
2022-07-29T06:31:20.947Z,2.44
2022-07-29T06:32:08.169Z,2.33
2022-07-29T06:32:54.700Z,2.29
2022-07-29T06:33:41.449Z,2.52
2022-07-29T06:34:28.020Z,2.69
2022-07-29T06:36:22.923Z,2.75
2022-07-29T06:37:15.368Z,2.71
2022-07-29T06:38:04.317Z,2.64
2022-07-29T06:39:11.734Z,2.73
2022-07-29T06:40:17.601Z,2.68
2022-07-29T06:41:05.917Z,2.58
2022-07-29T06:41:52.486Z,2.36
2022-07-29T06:42:45.272Z,2.73
2022-07-29T06:43:50.162Z,2.60
2022-07-29T06:44:37.627Z,2.85
2022-07-29T06:45:25.160Z,2.78
2022-07-29T06:46:18.514Z,2.61
2022-07-29T06:47:05.225Z,2.66
2022-07-29T06:47:51.785Z,2.40
2022-07-29T06:48:39.159Z,2.55
2022-07-29T06:49:27.075Z,2.64
2022-07-29T06:50:14.910Z,2.75
2022-07-29T06:51:01.625Z,2.73
2022-07-29T06:51:48.167Z,2.75
2022-07-29T06:52:34.645Z,2.51
2022-07-29T06:53:21.476Z,2.63
2022-07-29T06:54:08.227Z,2.74
2022-07-29T06:54:55.903Z,2.90
2022-07-29T06:55:43.238Z,2.71
2022-07-29T06:56:39.315Z,2.38
2022-07-29T06:57:27.262Z,2.60
2022-07-29T06:58:16.876Z,2.64
2022-07-29T06:59:11.973Z,2.66
2022-07-29T06:59:58.475Z,2.57
2022-07-29T07:00:45.998Z,2.69
2022-07-29T07:01:32.732Z,2.44
2022-07-29T07:02:19.362Z,2.84
2022-07-29T07:03:05.880Z,2.71
2022-07-29T07:03:52.409Z,2.62
2022-07-29T07:04:38.958Z,2.63
2022-07-29T07:05:25.525Z,2.78
2022-07-29T07:06:15.120Z,2.70
2022-07-29T07:07:01.787Z,2.71
2022-07-29T07:07:48.268Z,2.66
2022-07-29T07:08:34.760Z,2.44
2022-07-29T07:09:21.289Z,2.44
2022-07-29T07:10:08.547Z,2.57
2022-07-29T07:10:56.218Z,2.79
2022-07-29T07:11:42.663Z,2.66
2022-07-29T07:12:29.129Z,2.59
2022-07-29T07:13:18.016Z,2.76
2022-07-29T07:14:04.619Z,2.76
2022-07-29T07:14:51.151Z,2.55
2022-07-29T07:15:39.581Z,2.71
2022-07-29T07:16:26.541Z,2.56
2022-07-29T07:17:13.015Z,2.74
2022-07-29T07:18:00.729Z,2.68
2022-07-29T07:18:47.201Z,2.61
2022-07-29T07:19:33.744Z,2.92
2022-07-29T07:20:20.444Z,2.84
2022-07-29T07:21:07.064Z,2.60
2022-07-29T07:21:54.253Z,2.89
2022-07-29T07:22:44.731Z,2.56
2022-07-29T07:23:31.253Z,2.59
2022-07-29T07:24:18.134Z,2.67
2022-07-29T07:25:05.299Z,2.71
2022-07-29T07:25:52.116Z,2.77
2022-07-29T07:26:40.650Z,2.55
2022-07-29T07:27:28.324Z,2.35
2022-07-29T07:28:14.839Z,2.69
2022-07-29T07:29:01.369Z,2.86
2022-07-29T07:29:47.973Z,2.83
2022-07-29T07:30:34.540Z,2.68
2022-07-29T07:31:21.169Z,2.66
2022-07-29T07:32:08.589Z,2.59
2022-07-29T07:32:56.208Z,2.58
2022-07-29T07:33:42.822Z,2.82
2022-07-29T07:34:30.950Z,2.83
2022-07-29T07:35:17.704Z,2.81
2022-07-29T07:36:04.831Z,2.59
2022-07-29T07:36:51.269Z,2.75
2022-07-29T07:37:39.153Z,2.84
2022-07-29T07:38:25.620Z,2.94
2022-07-29T07:39:12.150Z,2.73
2022-07-29T07:39:59.069Z,2.68
2022-07-29T07:40:47.319Z,2.70
2022-07-29T07:41:33.778Z,3.06
2022-07-29T07:42:20.594Z,2.88
2022-07-29T07:43:07.191Z,2.92
2022-07-29T07:43:53.701Z,2.82
2022-07-29T07:45:03.712Z,3.02
2022-07-29T07:45:47.415Z,3.06
2022-07-29T07:46:33.933Z,2.84
2022-07-29T07:47:20.880Z,3.05
2022-07-29T07:48:11.039Z,2.64
2022-07-29T07:48:57.534Z,2.70
2022-07-29T07:49:44.012Z,2.73
2022-07-29T07:50:31.727Z,2.72
2022-07-29T07:51:19.697Z,2.65
2022-07-29T07:52:06.201Z,2.57
2022-07-29T07:52:55.975Z,2.59
2022-07-29T07:53:42.465Z,2.58
2022-07-29T07:54:29.194Z,2.61
2022-07-29T07:55:15.965Z,2.87
2022-07-29T07:56:11.477Z,2.61
2022-07-29T07:56:59.045Z,2.73
2022-07-29T07:57:46.456Z,2.89
2022-07-29T07:58:33.471Z,2.86
2022-07-29T07:59:20.296Z,2.76
2022-07-29T08:00:07.595Z,2.90
2022-07-29T08:00:59.357Z,2.77
2022-07-29T08:01:54.993Z,2.71
2022-07-29T08:02:44.026Z,2.73
2022-07-29T08:03:31.298Z,2.47
2022-07-29T08:04:22.093Z,2.82
2022-07-29T08:05:17.663Z,2.80
2022-07-29T08:06:06.651Z,2.72
2022-07-29T08:06:55.129Z,2.71
2022-07-29T08:07:41.637Z,2.74
2022-07-29T08:08:28.247Z,2.79
2022-07-29T08:09:28.842Z,2.70
2022-07-29T08:10:39.496Z,2.94
2022-07-29T08:11:26.203Z,3.13
2022-07-29T08:12:12.912Z,3.07
2022-07-29T08:12:59.980Z,2.98
2022-07-29T08:13:48.367Z,2.72
2022-07-29T08:14:35.066Z,2.69
2022-07-29T08:15:21.681Z,2.93
2022-07-29T08:16:13.960Z,2.98
2022-07-29T08:17:01.071Z,3.02
2022-07-29T08:17:48.187Z,2.74
2022-07-29T08:18:36.125Z,2.88
2022-07-29T08:19:22.899Z,2.98
2022-07-29T08:20:18.373Z,2.75
2022-07-29T08:21:05.157Z,2.98
2022-07-29T08:21:53.871Z,2.74
2022-07-29T08:22:40.712Z,2.82
2022-07-29T08:23:46.249Z,2.95
2022-07-29T08:24:47.301Z,2.87
2022-07-29T08:25:34.781Z,2.80
2022-07-29T08:26:31.508Z,2.87
2022-07-29T08:27:41.768Z,2.84
2022-07-29T08:28:27.189Z,2.51
2022-07-29T08:29:18.326Z,2.74
2022-07-29T08:30:08.213Z,3.08
2022-07-29T08:30:55.295Z,2.87
2022-07-29T08:31:41.934Z,2.67
2022-07-29T08:32:51.869Z,2.81
2022-07-29T08:33:36.485Z,2.93
2022-07-29T08:34:27.933Z,2.64
2022-07-29T08:35:14.826Z,2.50
2022-07-29T08:36:01.513Z,2.78
2022-07-29T08:36:50.851Z,2.71
2022-07-29T08:37:38.156Z,2.82
2022-07-29T08:38:24.947Z,2.83
2022-07-29T08:39:11.782Z,3.00
2022-07-29T08:39:59.565Z,2.89
2022-07-29T08:40:47.845Z,3.05
2022-07-29T08:41:34.854Z,2.75
2022-07-29T08:42:23.618Z,2.66
2022-07-29T08:43:14.912Z,3.08
2022-07-29T08:44:01.615Z,3.09
2022-07-29T08:44:49.948Z,3.01
2022-07-29T08:45:51.169Z,2.65
2022-07-29T08:46:40.799Z,2.34
2022-07-29T08:47:29.002Z,2.72
2022-07-29T08:48:21.997Z,3.01
2022-07-29T08:49:09.114Z,2.83
2022-07-29T08:49:55.577Z,2.99
2022-07-29T08:50:43.760Z,3.10
2022-07-29T08:51:36.447Z,2.62
2022-07-29T08:52:39.199Z,2.75
2022-07-29T08:53:29.105Z,2.70
2022-07-29T08:54:19.544Z,3.23
2022-07-29T08:55:08.758Z,2.94
2022-07-29T08:55:56.979Z,2.83
2022-07-29T08:56:45.953Z,3.07
2022-07-29T08:57:35.957Z,2.76
2022-07-29T08:58:26.248Z,2.57
2022-07-29T08:59:15.586Z,2.94
2022-07-29T09:00:12.100Z,3.05
2022-07-29T09:01:04.358Z,2.83
2022-07-29T09:01:55.713Z,3.04
2022-07-29T09:02:53.215Z,2.90
2022-07-29T09:03:41.551Z,2.71
2022-07-29T09:04:33.034Z,2.92
2022-07-29T09:05:20.678Z,2.54
2022-07-29T09:06:09.809Z,2.86
2022-07-29T09:07:04.810Z,3.17
2022-07-29T09:07:52.028Z,2.94
2022-07-29T09:08:40.461Z,2.76
2022-07-29T09:09:28.730Z,3.03
2022-07-29T09:10:15.785Z,3.16
2022-07-29T09:11:05.298Z,3.12
2022-07-29T09:11:54.999Z,3.13
2022-07-29T09:12:41.886Z,3.08
2022-07-29T09:13:28.524Z,3.47
2022-07-29T09:14:15.801Z,3.09
2022-07-29T09:15:04.186Z,2.85
2022-07-29T09:15:52.820Z,2.94
2022-07-29T09:17:08.873Z,2.99
2022-07-29T09:17:57.432Z,3.02
2022-07-29T09:18:46.515Z,2.98
2022-07-29T09:19:38.686Z,3.39
2022-07-29T09:20:51.164Z,3.28
2022-07-29T09:22:00.564Z,2.93
2022-07-29T09:22:53.745Z,2.74
2022-07-29T09:23:42.846Z,2.97
2022-07-29T09:24:49.492Z,3.09
2022-07-29T09:25:38.702Z,3.12
2022-07-29T09:26:30.793Z,3.27
2022-07-29T09:27:24.641Z,3.10
2022-07-29T09:28:11.968Z,3.34
2022-07-29T09:29:01.813Z,3.04
2022-07-29T09:30:02.803Z,2.75
2022-07-29T09:30:53.793Z,3.40
2022-07-29T09:31:45.329Z,3.07
2022-07-29T09:32:33.002Z,3.10
2022-07-29T09:33:22.787Z,2.90
2022-07-29T09:34:12.903Z,3.16
2022-07-29T09:35:20.400Z,3.14
2022-07-29T09:36:12.585Z,3.57
2022-07-29T09:36:59.423Z,2.90
2022-07-29T09:37:47.243Z,3.26
2022-07-29T09:38:36.248Z,3.13
2022-07-29T09:39:31.260Z,3.05
2022-07-29T09:40:26.966Z,3.17
2022-07-29T09:41:15.015Z,2.74
2022-07-29T09:42:05.745Z,2.79
2022-07-29T09:42:56.589Z,3.22
2022-07-29T09:44:02.905Z,2.80
2022-07-29T09:44:51.257Z,3.21
2022-07-29T09:45:38.756Z,3.26
2022-07-29T09:46:26.898Z,3.29
2022-07-29T09:47:13.581Z,3.28
2022-07-29T09:48:18.349Z,3.48
2022-07-29T09:49:09.386Z,3.94
2022-07-29T09:50:01.409Z,3.86
2022-07-29T09:50:50.748Z,3.87
2022-07-29T09:51:38.924Z,3.90
2022-07-29T09:52:27.799Z,3.76
2022-07-29T09:53:37.608Z,4.01
2022-07-29T09:54:27.576Z,4.00
2022-07-29T09:55:18.063Z,3.82
2022-07-29T09:56:07.532Z,4.14
2022-07-29T09:56:58.744Z,4.19
2022-07-29T09:57:48.977Z,4.07
2022-07-29T09:58:36.131Z,4.00
2022-07-29T09:59:29.675Z,4.33
2022-07-29T10:00:20.210Z,4.36
2022-07-29T10:01:10.476Z,4.84
2022-07-29T10:01:58.218Z,4.48
2022-07-29T10:02:47.279Z,4.83
2022-07-29T10:03:52.090Z,4.77
2022-07-29T10:04:41.059Z,4.82
2022-07-29T10:05:36.605Z,4.57
2022-07-29T10:06:26.115Z,4.03
2022-07-29T10:07:12.678Z,4.58
2022-07-29T10:07:59.578Z,4.15
2022-07-29T10:08:47.609Z,4.25
2022-07-29T10:09:35.471Z,4.44
2022-07-29T10:10:32.348Z,4.24
2022-07-29T10:11:20.024Z,4.28
2022-07-29T10:12:15.636Z,4.42
2022-07-29T10:13:13.446Z,4.32
2022-07-29T10:14:04.812Z,3.90
2022-07-29T10:14:52.633Z,3.99
2022-07-29T10:15:45.140Z,3.67
2022-07-29T10:16:35.988Z,3.77
2022-07-29T10:17:23.776Z,4.19
2022-07-29T10:18:12.425Z,4.19
2022-07-29T10:19:01.077Z,3.81
2022-07-29T10:19:49.751Z,3.81
2022-07-29T10:20:37.789Z,3.88
2022-07-29T10:21:36.129Z,4.04
2022-07-29T10:22:51.417Z,4.05
2022-07-29T10:23:46.379Z,4.32
2022-07-29T10:24:34.718Z,4.63
2022-07-29T10:25:21.804Z,4.56
2022-07-29T10:26:10.248Z,4.09
2022-07-29T10:26:59.043Z,4.21
2022-07-29T10:27:47.513Z,4.07
2022-07-29T10:28:34.430Z,4.43
2022-07-29T10:29:21.498Z,4.00
2022-07-29T10:30:10.745Z,4.02
2022-07-29T10:31:09.140Z,4.33
2022-07-29T10:32:16.134Z,4.17
2022-07-29T10:33:28.856Z,4.53
2022-07-29T10:34:32.142Z,4.44
2022-07-29T10:35:50.450Z,4.43
2022-07-29T10:37:00.604Z,4.43
2022-07-29T10:38:26.456Z,4.95
2022-07-29T10:39:44.496Z,4.44
2022-07-29T10:41:06.958Z,4.54
2022-07-29T10:42:33.432Z,4.58
2022-07-29T10:43:33.794Z,4.33
2022-07-29T10:44:24.003Z,4.65
2022-07-29T10:45:11.074Z,4.54
2022-07-29T10:46:01.894Z,4.42
2022-07-29T10:46:50.415Z,4.21
2022-07-29T10:47:37.946Z,4.34
2022-07-29T10:48:26.427Z,4.57
2022-07-29T10:49:18.779Z,4.43
2022-07-29T10:50:07.296Z,4.45
2022-07-29T10:50:55.212Z,4.22
2022-07-29T10:52:01.755Z,4.16
2022-07-29T10:52:51.410Z,4.12
2022-07-29T10:53:51.271Z,4.44
2022-07-29T10:54:45.953Z,3.92
2022-07-29T10:55:39.454Z,4.22
2022-07-29T10:56:37.041Z,4.23
2022-07-29T10:57:54.210Z,4.51
2022-07-29T10:58:37.951Z,3.94
2022-07-29T10:59:32.330Z,3.88
2022-07-29T11:00:31.617Z,3.95
2022-07-29T11:01:37.281Z,3.94
2022-07-29T11:03:53.567Z,3.89
2022-07-29T11:04:46.977Z,4.22
2022-07-29T11:06:08.745Z,4.44
2022-07-29T11:07:03.907Z,4.53
2022-07-29T11:08:27.817Z,4.92
2022-07-29T11:09:25.727Z,4.28
2022-07-29T11:10:31.033Z,4.06
2022-07-29T11:11:22.253Z,4.51
2022-07-29T11:12:39.308Z,3.94
2022-07-29T11:13:44.727Z,4.02
2022-07-29T11:14:54.886Z,4.40
2022-07-29T11:15:57.511Z,4.38
2022-07-29T11:17:07.265Z,3.88
2022-07-29T11:17:53.905Z,3.85
2022-07-29T11:19:11.593Z,4.45